createdAt,value
2022-08-10T00:02:22.585Z,102066.44
2022-08-10T00:04:51.688Z,102064.72
2022-08-10T00:07:19.456Z,102073.78
2022-08-10T00:09:50.627Z,102070.22
2022-08-10T00:12:20.470Z,102068.75
2022-08-10T00:14:48.570Z,102070.22
2022-08-10T00:17:16.470Z,102069.16
2022-08-10T00:20:03.224Z,102064.72
2022-08-10T00:22:33.738Z,102062.84
2022-08-10T00:25:01.747Z,102061.16
2022-08-10T00:27:52.952Z,102059.25
2022-08-10T00:30:17.553Z,102055.69
2022-08-10T00:32:45.597Z,102062.00
2022-08-10T00:35:13.456Z,102053.59
2022-08-10T00:37:42.624Z,102054.00
2022-08-10T00:40:35.171Z,102055.69
2022-08-10T00:43:06.153Z,102054.00
2022-08-10T00:45:34.105Z,102051.25
2022-08-10T00:48:01.880Z,102051.25
2022-08-10T00:50:29.835Z,102050.22
2022-08-10T00:52:59.270Z,102052.94
2022-08-10T00:55:27.358Z,102042.00
2022-08-10T00:57:55.888Z,102046.63
2022-08-10T01:00:23.871Z,102043.06
2022-08-10T01:02:52.199Z,102051.06
2022-08-10T01:05:20.552Z,102043.91
2022-08-10T01:08:18.596Z,102039.50
2022-08-10T01:10:53.751Z,102047.72
2022-08-10T01:13:24.116Z,102046.63
2022-08-10T01:15:56.298Z,102048.53
2022-08-10T01:18:28.947Z,102038.44
2022-08-10T01:21:41.923Z,102043.91
2022-08-10T01:25:09.983Z,102046.03
2022-08-10T01:27:41.777Z,102040.56
2022-08-10T01:30:10.939Z,102040.56
2022-08-10T01:32:49.283Z,102037.81
2022-08-10T01:35:21.613Z,102035.09
2022-08-10T01:37:53.242Z,102030.47
2022-08-10T01:40:25.085Z,102013.03
2022-08-10T01:42:53.738Z,102033.19
2022-08-10T01:45:22.994Z,102032.34
2022-08-10T01:48:16.761Z,102026.03
2022-08-10T01:50:59.615Z,102037.81
2022-08-10T01:53:40.074Z,102039.91
2022-08-10T01:56:10.359Z,102039.72
2022-08-10T01:58:38.317Z,102046.03
2022-08-10T02:01:08.078Z,102039.72
2022-08-10T02:03:35.928Z,102040.56
2022-08-10T02:06:23.852Z,102038.66
2022-08-10T02:09:06.010Z,102044.13
2022-08-10T02:12:05.502Z,102037.81
2022-08-10T02:14:23.180Z,102036.97
2022-08-10T02:16:52.636Z,102031.31
2022-08-10T02:19:22.925Z,102032.34
2022-08-10T02:22:35.354Z,102026.88
2022-08-10T02:24:39.424Z,102033.19
2022-08-10T02:27:07.265Z,102031.72
2022-08-10T02:29:35.133Z,102032.34
2022-08-10T02:32:05.113Z,102040.56
2022-08-10T02:34:34.493Z,102045.19
2022-08-10T02:37:03.374Z,102044.13
2022-08-10T02:39:38.959Z,102053.38
2022-08-10T02:45:02.363Z,102049.81
2022-08-10T02:45:29.195Z,102047.91
2022-08-10T02:47:58.464Z,102047.06
2022-08-10T02:50:27.976Z,102048.97
2022-08-10T02:52:58.867Z,102044.34
2022-08-10T02:55:32.559Z,102040.75
2022-08-10T02:58:15.344Z,102039.06
2022-08-10T03:00:48.246Z,102042.66
2022-08-10T03:03:20.432Z,102033.41
2022-08-10T03:05:49.394Z,102038.03
2022-08-10T03:08:17.978Z,102009.69
2022-08-10T03:10:45.762Z,102028.78
2022-08-10T03:13:13.870Z,102045.19
2022-08-10T03:15:41.700Z,102035.28
2022-08-10T03:18:09.476Z,102032.34
2022-08-10T03:20:40.150Z,102036.13
2022-08-10T03:23:11.864Z,102039.72
2022-08-10T03:25:39.650Z,102039.72
2022-08-10T03:28:07.580Z,102033.41
2022-08-10T03:30:35.392Z,102030.66
2022-08-10T03:33:04.553Z,102034.44
2022-08-10T03:35:32.343Z,102027.94
2022-08-10T03:38:01.629Z,102033.41
2022-08-10T03:40:32.328Z,102024.34
2022-08-10T03:43:15.039Z,102000.19
2022-08-10T03:45:54.771Z,102018.88
2022-08-10T03:48:23.524Z,102023.50
2022-08-10T03:50:52.704Z,102021.63
2022-08-10T03:53:25.236Z,102020.38
2022-08-10T03:56:26.820Z,102021.22
2022-08-10T03:58:58.398Z,102019.94
2022-08-10T04:02:46.582Z,102029.81
2022-08-10T04:04:20.612Z,102028.13
2022-08-10T04:06:54.782Z,102035.28
2022-08-10T04:09:24.971Z,102032.56
2022-08-10T04:12:11.903Z,102031.91
2022-08-10T04:14:51.274Z,102033.41
2022-08-10T04:17:59.507Z,102032.56
2022-08-10T04:20:11.655Z,102042.44
2022-08-10T04:22:39.790Z,102037.81
2022-08-10T04:25:09.712Z,102041.41
2022-08-10T04:27:37.601Z,102027.53
2022-08-10T04:30:07.661Z,102031.91
2022-08-10T04:32:35.993Z,102035.09
2022-08-10T04:35:04.501Z,102046.03
2022-08-10T04:37:32.311Z,102039.91
2022-08-10T04:40:00.114Z,102041.41
2022-08-10T04:42:29.358Z,102037.81
2022-08-10T04:44:57.277Z,102047.72
2022-08-10T04:47:57.257Z,102040.56
2022-08-10T04:50:12.930Z,102039.72
2022-08-10T04:52:44.476Z,102043.28
2022-08-10T04:55:12.282Z,102037.81
2022-08-10T04:57:41.563Z,102031.50
2022-08-10T05:00:19.077Z,102035.09
2022-08-10T05:02:47.647Z,102026.44
2022-08-10T05:05:15.397Z,102034.25
2022-08-10T05:07:53.722Z,102037.81
2022-08-10T05:10:22.122Z,102035.09
2022-08-10T05:12:51.585Z,102037.81
2022-08-10T05:15:19.324Z,102041.41
2022-08-10T05:18:08.326Z,102042.06
2022-08-10T05:20:36.153Z,102042.25
2022-08-10T05:23:04.429Z,102046.03
2022-08-10T05:25:32.438Z,102044.78
2022-08-10T05:28:06.324Z,102044.13
2022-08-10T05:30:34.701Z,102042.25
2022-08-10T05:33:06.705Z,102044.75
2022-08-10T05:35:52.872Z,102037.81
2022-08-10T05:38:26.388Z,102055.91
2022-08-10T05:40:54.606Z,102047.72
2022-08-10T05:43:24.166Z,102066.03
2022-08-10T05:46:17.521Z,102054.00
2022-08-10T05:48:59.489Z,102053.19
2022-08-10T05:51:29.019Z,102058.66
2022-08-10T05:54:02.966Z,102062.19
2022-08-10T05:56:55.903Z,102064.13
2022-08-10T06:00:33.270Z,102066.03
2022-08-10T06:02:33.176Z,102066.88
2022-08-10T06:04:59.785Z,102059.06
2022-08-10T06:07:28.163Z,102053.59
2022-08-10T06:09:59.080Z,102058.84
2022-08-10T06:12:30.091Z,102053.38
2022-08-10T06:15:06.074Z,102055.06
2022-08-10T06:17:38.151Z,102060.56
2022-08-10T06:20:07.066Z,102059.69
2022-08-10T06:22:35.697Z,102061.41
2022-08-10T06:27:51.562Z,102067.66
2022-08-10T06:30:21.293Z,102068.50
2022-08-10T06:32:49.600Z,102067.66
2022-08-10T06:35:17.521Z,102074.00
2022-08-10T06:37:51.524Z,102065.78
2022-08-10T06:40:19.873Z,102071.25
2022-08-10T06:42:49.281Z,102067.66
2022-08-10T06:45:18.336Z,102070.41
2022-08-10T06:47:47.984Z,102065.19
2022-08-10T06:50:44.960Z,102066.88
2022-08-10T06:53:07.140Z,102074.00
2022-08-10T06:55:49.775Z,102069.59
2022-08-10T06:58:18.345Z,102062.19
2022-08-10T07:00:51.860Z,102065.78
2022-08-10T07:03:21.830Z,102062.19
2022-08-10T07:05:51.411Z,102064.13
2022-08-10T07:08:19.821Z,102075.88
2022-08-10T07:10:47.991Z,102059.28
2022-08-10T07:14:17.316Z,102048.56
2022-08-10T07:16:05.771Z,102077.81
2022-08-10T07:18:35.226Z,102065.78
2022-08-10T07:21:03.071Z,102070.41
2022-08-10T07:23:59.665Z,102066.63
2022-08-10T07:26:19.332Z,102067.47
2022-08-10T07:28:48.296Z,102077.56
2022-08-10T07:31:29.811Z,102065.78
2022-08-10T07:34:07.564Z,102071.50
2022-08-10T07:36:35.381Z,102072.09
2022-08-10T07:39:04.982Z,102076.72
2022-08-10T07:41:33.264Z,102075.69
2022-08-10T07:44:03.023Z,102048.78
2022-08-10T07:46:30.961Z,102080.31
2022-08-10T07:49:00.789Z,102076.72
2022-08-10T07:51:30.466Z,102083.03
2022-08-10T07:53:58.231Z,102082.19
2022-08-10T07:56:48.086Z,102083.03
2022-08-10T07:59:16.402Z,102082.19
2022-08-10T08:01:48.089Z,102080.09
2022-08-10T08:04:16.370Z,102086.00
2022-08-10T08:06:45.879Z,102086.81
2022-08-10T08:09:13.752Z,102088.75
2022-08-10T08:11:43.502Z,102090.41
2022-08-10T08:14:11.766Z,102087.91
2022-08-10T08:16:41.516Z,102049.22
2022-08-10T08:24:10.319Z,102084.94
2022-08-10T08:24:46.810Z,102090.63
2022-08-10T08:27:16.758Z,102095.03
2022-08-10T08:29:46.190Z,102082.19
2022-08-10T08:32:14.473Z,102083.28
2022-08-10T08:34:43.500Z,102081.34
2022-08-10T08:37:13.316Z,102086.81
2022-08-10T08:40:01.226Z,102081.34
2022-08-10T08:42:55.942Z,102077.56
2022-08-10T08:45:26.478Z,102084.09
2022-08-10T08:48:10.287Z,102058.66
2022-08-10T08:50:44.108Z,102071.25
2022-08-10T08:53:22.920Z,102059.91
2022-08-10T08:56:06.120Z,102072.09
2022-08-10T08:58:45.171Z,102056.72
2022-08-10T09:01:21.227Z,102053.38
2022-08-10T09:03:55.757Z,102024.81
2022-08-10T09:06:37.757Z,102056.72
2022-08-10T09:09:32.576Z,102047.72
2022-08-10T09:12:07.093Z,102052.09
2022-08-10T09:14:38.344Z,102042.25
2022-08-10T09:17:16.329Z,102031.09
2022-08-10T09:19:48.241Z,102016.41
2022-08-10T09:22:20.553Z,102032.16
2022-08-10T09:24:51.442Z,102036.78
2022-08-10T09:27:20.643Z,102032.97
2022-08-10T09:29:55.993Z,102030.22
2022-08-10T09:36:16.775Z,102023.09
2022-08-10T09:36:22.103Z,102027.50
2022-08-10T09:38:14.707Z,102023.91
2022-08-10T09:40:58.920Z,102015.50
2022-08-10T09:43:36.381Z,102023.91
2022-08-10T09:46:11.787Z,102019.28
2022-08-10T09:48:42.809Z,102020.38
2022-08-10T09:51:43.639Z,102017.41
2022-08-10T09:54:07.711Z,102017.41
2022-08-10T09:56:46.569Z,102015.72
2022-08-10T09:59:48.257Z,102006.44
2022-08-10T10:02:11.087Z,102003.72
2022-08-10T10:04:42.141Z,101996.34
2022-08-10T10:07:10.360Z,101990.03
2022-08-10T10:09:40.606Z,101984.56
2022-08-10T10:12:16.755Z,101979.94
2022-08-10T10:15:10.369Z,101984.56
2022-08-10T10:18:23.357Z,101983.72
2022-08-10T10:20:56.905Z,101972.78
2022-08-10T10:23:30.838Z,101976.38
2022-08-10T10:26:08.475Z,101969.22
2022-08-10T10:29:19.639Z,101963.53
2022-08-10T10:31:39.713Z,101962.69
2022-08-10T10:34:23.180Z,101958.91
2022-08-10T10:36:52.160Z,101948.16
2022-08-10T10:39:24.072Z,101958.91
2022-08-10T10:41:57.442Z,101927.41
2022-08-10T10:44:42.339Z,101951.53
2022-08-10T10:47:15.894Z,101943.16
2022-08-10T10:49:50.926Z,101955.97
2022-08-10T10:52:26.197Z,101947.75
2022-08-10T10:55:00.127Z,101948.59
2022-08-10T10:57:59.974Z,101942.09
2022-08-10T11:00:18.332Z,101937.66
2022-08-10T11:03:01.036Z,101929.47
2022-08-10T11:05:33.563Z,101930.31
2022-08-10T11:08:03.090Z,101919.16
2022-08-10T11:10:34.793Z,101922.94
2022-08-10T11:14:25.725Z,101928.63
2022-08-10T11:16:05.596Z,101917.47
2022-08-10T11:18:56.262Z,101908.41
2022-08-10T11:21:29.332Z,101910.97
2022-08-10T11:24:47.342Z,101910.31
2022-08-10T11:26:50.696Z,101877.13
2022-08-10T11:29:21.797Z,101904.84
2022-08-10T11:31:55.214Z,101898.31
2022-08-10T11:34:48.127Z,101909.25
2022-08-10T11:37:26.081Z,101887.59
2022-08-10T11:39:57.510Z,101915.53
2022-08-10T11:42:35.678Z,101907.34
2022-08-10T11:45:08.066Z,101898.06
2022-08-10T11:47:40.749Z,101852.13
2022-08-10T11:50:12.538Z,101901.66
2022-08-10T11:52:45.335Z,101902.50
2022-08-10T11:55:14.883Z,101888.81
2022-08-10T11:57:54.501Z,101897.88
2022-08-10T12:00:23.521Z,101884.19
2022-08-10T12:02:54.858Z,101889.66
2022-08-10T12:05:51.590Z,101878.09
2022-08-10T12:10:09.636Z,101880.41
2022-08-10T12:11:01.977Z,101875.97
2022-08-10T12:13:31.401Z,101875.16
2022-08-10T12:16:05.595Z,101879.56
2022-08-10T12:18:37.716Z,101832.34
2022-08-10T12:21:10.117Z,101860.63
2022-08-10T12:24:02.837Z,101865.03
2022-08-10T12:26:34.882Z,101852.03
2022-08-10T12:29:04.533Z,101852.63
2022-08-10T12:31:37.137Z,101858.09
2022-08-10T12:34:09.889Z,101856.63
2022-08-10T12:36:41.532Z,101847.16
2022-08-10T12:39:15.771Z,101836.22
2022-08-10T12:41:47.549Z,101846.34
2022-08-10T12:44:17.383Z,101833.47
2022-08-10T12:46:51.069Z,101829.94
2022-08-10T12:49:21.517Z,101832.44
2022-08-10T12:51:53.920Z,101830.31
2022-08-10T12:54:32.767Z,101818.75
2022-08-10T12:57:02.874Z,101819.97
2022-08-10T12:59:30.829Z,101794.63
2022-08-10T13:02:06.618Z,101810.72
2022-08-10T13:04:40.370Z,101780.97
2022-08-10T13:07:08.153Z,101814.31
2022-08-10T13:09:55.724Z,101812.88
2022-08-10T13:12:39.101Z,101812.41
2022-08-10T13:15:44.583Z,101805.03
2022-08-10T13:18:03.069Z,101798.72
2022-08-10T13:20:37.277Z,101785.09
2022-08-10T13:23:06.942Z,101795.16
2022-08-10T13:25:38.137Z,101787.78
2022-08-10T13:28:37.751Z,101795.16
2022-08-10T13:30:56.536Z,101785.25
2022-08-10T13:34:41.416Z,101783.38
2022-08-10T13:36:17.142Z,101786.94
2022-08-10T13:38:48.658Z,101781.47
2022-08-10T13:41:17.313Z,101775.25
2022-08-10T13:43:56.557Z,101779.78
2022-08-10T13:46:24.560Z,101775.16
2022-08-10T13:48:53.444Z,101744.38
2022-08-10T13:51:53.757Z,101774.94
2022-08-10T13:54:11.495Z,101765.91
2022-08-10T13:56:39.413Z,101773.06
2022-08-10T13:59:09.942Z,101764.84
2022-08-10T14:01:38.262Z,101757.50
2022-08-10T14:04:06.814Z,101760.22
2022-08-10T14:06:36.067Z,101764.84
2022-08-10T14:09:08.938Z,101757.50
2022-08-10T14:11:38.485Z,101756.44
2022-08-10T14:14:08.284Z,101749.03
2022-08-10T14:16:36.196Z,101753.69
2022-08-10T14:19:06.160Z,101749.03
2022-08-10T14:21:39.857Z,101740.81
2022-08-10T14:24:07.841Z,101742.75
2022-08-10T14:26:35.614Z,101745.25
2022-08-10T14:29:04.455Z,101750.13
2022-08-10T14:31:35.365Z,101732.69
2022-08-10T14:34:04.701Z,101727.81
2022-08-10T14:36:37.946Z,101734.56
2022-08-10T14:39:07.231Z,101728.91
2022-08-10T14:42:01.748Z,101727.22
2022-08-10T14:44:25.254Z,101728.25
2022-08-10T14:46:55.739Z,101731.81
2022-08-10T14:49:25.863Z,101729.09
2022-08-10T14:51:57.769Z,101710.66
2022-08-10T14:54:29.572Z,101731.81
2022-08-10T14:56:58.078Z,101735.34
2022-08-10T15:00:22.765Z,101720.03
2022-08-10T15:02:39.856Z,101716.84
2022-08-10T15:05:09.182Z,101716.84
2022-08-10T15:07:37.562Z,101706.72
2022-08-10T15:10:09.215Z,101701.94
2022-08-10T15:12:38.279Z,101718.53
2022-08-10T15:15:09.321Z,101705.91
2022-08-10T15:17:39.621Z,101680.56
2022-08-10T15:20:14.553Z,101715.78
2022-08-10T15:22:46.897Z,101712.00
2022-08-10T15:25:19.007Z,101696.47
2022-08-10T15:27:53.358Z,101694.13
2022-08-10T15:30:29.842Z,101710.31
2022-08-10T15:33:21.470Z,101695.16
2022-08-10T15:36:22.941Z,101696.25
2022-08-10T15:38:58.949Z,101695.78
2022-08-10T15:41:58.834Z,101694.94
2022-08-10T15:44:36.660Z,101697.69
2022-08-10T15:47:05.948Z,101681.75
2022-08-10T15:49:39.636Z,101693.06
2022-08-10T15:52:39.362Z,101685.91
2022-08-10T15:55:42.883Z,101693.06
2022-08-10T15:58:04.952Z,101680.22
2022-08-10T16:00:32.808Z,101693.91
2022-08-10T16:03:03.070Z,101681.06
2022-08-10T16:06:00.457Z,101689.28
2022-08-10T16:08:27.200Z,101679.84
2022-08-10T16:10:56.885Z,101685.69
2022-08-10T16:13:59.507Z,101680.22
2022-08-10T16:16:15.321Z,101675.59
2022-08-10T16:18:43.986Z,101675.59
2022-08-10T16:21:15.139Z,101673.06
2022-08-10T16:23:44.172Z,101667.38
2022-08-10T16:26:15.397Z,101672.63
2022-08-10T16:28:48.125Z,101665.25
2022-08-10T16:31:18.018Z,101668.81
2022-08-10T16:33:54.032Z,101664.03
2022-08-10T16:36:22.603Z,101674.06
2022-08-10T16:38:51.434Z,101662.97
2022-08-10T16:42:01.947Z,101668.38
2022-08-10T16:44:11.489Z,101661.03
2022-08-10T16:46:42.421Z,101661.03
2022-08-10T16:49:10.265Z,101657.19
2022-08-10T16:51:38.459Z,101640.91
2022-08-10T16:54:06.417Z,101660.59
2022-08-10T16:56:43.576Z,101663.09
2022-08-10T16:59:24.776Z,101663.94
2022-08-10T17:01:54.407Z,101668.56
2022-08-10T17:04:22.466Z,101662.06
2022-08-10T17:06:55.859Z,101660.13
2022-08-10T17:09:26.235Z,101662.88
2022-08-10T17:11:55.693Z,101656.34
2022-08-10T17:14:25.679Z,101660.75
2022-08-10T17:16:54.358Z,101646.44
2022-08-10T17:19:26.067Z,101658.00
2022-08-10T17:21:56.053Z,101636.59
2022-08-10T17:24:25.343Z,101597.25
2022-08-10T17:26:53.241Z,101651.47
2022-08-10T17:29:57.315Z,101656.97
2022-08-10T17:32:16.181Z,101656.13
2022-08-10T17:34:46.757Z,101651.47
2022-08-10T17:37:17.082Z,101654.00
2022-08-10T17:39:47.489Z,101649.38
2022-08-10T17:42:20.815Z,101648.28
2022-08-10T17:44:49.724Z,101646.38
2022-08-10T17:47:19.068Z,101648.28
2022-08-10T17:49:46.941Z,101647.22
2022-08-10T17:52:19.996Z,101642.22
2022-08-10T17:54:48.192Z,101660.06
2022-08-10T17:57:18.573Z,101647.22
2022-08-10T17:59:46.925Z,101656.50
2022-08-10T18:02:17.945Z,101627.19
2022-08-10T18:04:49.780Z,101658.38
2022-08-10T18:07:17.614Z,101621.94
2022-08-10T18:09:51.963Z,101647.44
2022-08-10T18:12:29.130Z,101649.13
2022-08-10T18:15:01.577Z,101645.53
2022-08-10T18:17:38.469Z,101621.72
2022-08-10T18:20:09.839Z,101648.97
2022-08-10T18:22:43.289Z,101660.06
2022-08-10T18:25:17.287Z,101662.81
2022-08-10T18:28:01.338Z,101672.91
2022-08-10T18:30:36.297Z,101671.84
2022-08-10T18:33:05.729Z,101669.13
2022-08-10T18:35:35.456Z,101674.59
2022-08-10T18:38:03.352Z,101658.22
2022-08-10T18:40:35.465Z,101673.75
2022-08-10T18:43:07.379Z,101675.44
2022-08-10T18:45:38.001Z,101672.69
2022-08-10T18:48:07.854Z,101679.00
2022-08-10T18:50:37.974Z,101678.16
2022-08-10T18:53:13.174Z,101682.97
2022-08-10T18:56:10.273Z,101674.75
2022-08-10T18:58:50.902Z,101681.06
2022-08-10T19:01:26.454Z,101685.69
2022-08-10T19:04:04.453Z,101683.81
2022-08-10T19:07:04.192Z,101679.16
2022-08-10T19:09:50.047Z,101682.75
2022-08-10T19:12:33.026Z,101691.78
2022-08-10T19:15:06.999Z,101689.91
2022-08-10T19:18:03.277Z,101691.78
2022-08-10T19:20:31.708Z,101699.75
2022-08-10T19:23:09.207Z,101697.84
2022-08-10T19:26:40.699Z,101693.47
2022-08-10T19:28:31.985Z,101704.81
2022-08-10T19:31:04.057Z,101701.22
2022-08-10T19:33:36.787Z,101702.91
2022-08-10T19:36:09.697Z,101704.81
2022-08-10T19:38:50.354Z,101696.44
2022-08-10T19:41:30.950Z,101675.47
2022-08-10T19:44:04.312Z,101697.69
2022-08-10T19:46:37.178Z,101703.34
2022-08-10T19:49:08.483Z,101710.69
2022-08-10T19:51:42.585Z,101703.34
2022-08-10T19:54:16.888Z,101695.13
2022-08-10T19:56:50.857Z,101697.69
2022-08-10T20:00:17.451Z,101677.00
2022-08-10T20:02:23.081Z,101705.06
2022-08-10T20:04:57.553Z,101714.75
2022-08-10T20:07:31.279Z,101715.81
2022-08-10T20:10:03.168Z,101714.97
2022-08-10T20:12:35.873Z,101701.38
2022-08-10T20:15:08.971Z,101712.47
2022-08-10T20:17:52.123Z,101718.16
2022-08-10T20:20:31.286Z,101716.25
2022-08-10T20:23:03.606Z,101717.31
2022-08-10T20:25:35.039Z,101722.78
2022-08-10T20:28:06.444Z,101721.13
2022-08-10T20:30:36.918Z,101727.44
2022-08-10T20:33:13.246Z,101724.91
2022-08-10T20:35:47.942Z,101728.47
2022-08-10T20:38:19.015Z,101721.31
2022-08-10T20:40:52.054Z,101724.91
2022-08-10T20:43:25.410Z,101717.78
2022-08-10T20:46:07.891Z,101709.16
2022-08-10T20:48:39.284Z,101721.56
2022-08-10T20:51:09.293Z,101714.63
2022-08-10T20:53:42.459Z,101720.72
2022-08-10T20:56:18.418Z,101720.72
2022-08-10T20:59:00.557Z,101730.84
2022-08-10T21:02:06.686Z,101721.78
2022-08-10T21:04:42.385Z,101724.16
2022-08-10T21:07:43.925Z,101723.91
2022-08-10T21:10:22.589Z,101729.38
2022-08-10T21:12:59.065Z,101731.25
2022-08-10T21:15:41.866Z,101730.47
2022-08-10T21:18:20.693Z,101726.88
2022-08-10T21:20:54.574Z,101701.31
2022-08-10T21:23:24.732Z,101732.34
2022-08-10T21:26:08.335Z,101727.94
2022-08-10T21:28:57.949Z,101731.50
2022-08-10T21:31:55.279Z,101734.47
2022-08-10T21:34:35.083Z,101729.84
2022-08-10T21:37:07.930Z,101732.56
2022-08-10T21:39:58.738Z,101719.94
2022-08-10T21:42:53.356Z,101737.19
2022-08-10T21:45:59.055Z,101719.94
2022-08-10T21:48:57.644Z,101728.34
2022-08-10T21:52:01.593Z,101731.06
2022-08-10T21:54:54.190Z,101733.00
2022-08-10T21:57:43.397Z,101733.00
2022-08-10T22:00:30.105Z,101729.41
2022-08-10T22:03:17.846Z,101725.84
2022-08-10T22:06:06.626Z,101727.72
2022-08-10T22:08:56.317Z,101723.09
2022-08-10T22:11:42.737Z,101731.31
2022-08-10T22:14:33.603Z,101719.53
2022-08-10T22:17:59.169Z,101726.06
2022-08-10T22:20:28.981Z,101724.38
2022-08-10T22:23:27.363Z,101725.22
2022-08-10T22:26:19.868Z,101719.16
2022-08-10T22:29:07.878Z,101724.38
2022-08-10T22:31:57.257Z,101727.34
2022-08-10T22:34:53.670Z,101722.69
2022-08-10T22:37:50.521Z,101719.94
2022-08-10T22:40:38.205Z,101698.41
2022-08-10T22:43:36.277Z,101712.00
2022-08-10T22:46:23.637Z,101719.16
2022-08-10T22:49:02.540Z,101712.00
2022-08-10T22:51:36.139Z,101712.84
2022-08-10T22:54:30.867Z,101708.19
2022-08-10T22:57:18.453Z,101715.31
2022-08-10T22:59:46.280Z,101704.00
2022-08-10T23:02:17.517Z,101710.94
2022-08-10T23:04:47.303Z,101709.00
2022-08-10T23:07:20.604Z,101712.00
2022-08-10T23:09:53.769Z,101714.47
2022-08-10T23:12:24.221Z,101718.06
2022-08-10T23:15:10.544Z,101717.22
2022-08-10T23:18:01.249Z,101719.16
2022-08-10T23:20:30.209Z,101721.03
2022-08-10T23:23:04.753Z,101709.09
2022-08-10T23:25:43.674Z,101697.81
2022-08-10T23:28:39.364Z,101721.03
2022-08-10T23:31:13.157Z,101723.78
2022-08-10T23:33:41.038Z,101720.19
2022-08-10T23:36:34.160Z,101720.19
2022-08-10T23:39:00.783Z,101720.19
2022-08-10T23:41:46.646Z,101722.09
2022-08-10T23:44:21.278Z,101722.94
2022-08-10T23:46:49.201Z,101713.88
2022-08-10T23:49:16.988Z,101719.38
2022-08-10T23:51:55.925Z,101707.41
2022-08-10T23:54:24.799Z,101699.03
2022-08-10T23:57:01.066Z,101714.72
2022-08-10T23:59:29.481Z,101714.72
